createdAt,value
2018-02-20T00:01:08.298Z,60.73
2018-02-20T00:03:36.555Z,56.23
2018-02-20T00:06:04.016Z,68.33
2018-02-20T00:08:31.491Z,56.50
2018-02-20T00:10:59.730Z,56.10
2018-02-20T00:13:27.196Z,63.93
2018-02-20T00:15:54.669Z,52.27
2018-02-20T00:18:22.891Z,58.50
2018-02-20T00:20:50.345Z,62.63
2018-02-20T00:23:18.623Z,61.20
2018-02-20T00:25:46.089Z,66.73
2018-02-20T00:28:13.549Z,60.67
2018-02-20T00:30:41.037Z,47.60
2018-02-20T00:33:08.510Z,57.43
2018-02-20T00:35:36.743Z,59.60
2018-02-20T00:38:04.999Z,59.20
2018-02-20T00:40:32.998Z,67.00
2018-02-20T00:43:00.455Z,78.23
2018-02-20T00:45:27.930Z,62.27
2018-02-20T00:47:55.390Z,53.70
2018-02-20T00:50:23.636Z,64.97
2018-02-20T00:52:51.115Z,62.93
2018-02-20T00:55:18.579Z,60.23
2018-02-20T00:57:46.846Z,59.20
2018-02-20T01:00:14.314Z,60.80
2018-02-20T01:02:42.569Z,52.60
2018-02-20T01:05:10.047Z,64.37
2018-02-20T01:07:38.352Z,59.27
2018-02-20T01:10:05.839Z,62.40
2018-02-20T01:12:33.326Z,68.73
2018-02-20T01:15:00.806Z,65.30
2018-02-20T01:17:29.075Z,59.43
2018-02-20T01:19:57.315Z,61.53
2018-02-20T01:22:24.807Z,56.03
2018-02-20T01:24:53.044Z,65.67
2018-02-20T01:27:20.515Z,64.60
2018-02-20T01:29:47.991Z,59.97
2018-02-20T01:32:16.214Z,65.50
2018-02-20T01:34:43.695Z,61.77
2018-02-20T01:37:11.162Z,73.10
2018-02-20T01:39:39.406Z,55.50
2018-02-20T01:42:06.899Z,53.63
2018-02-20T01:44:34.366Z,64.43
2018-02-20T01:47:02.591Z,74.50
2018-02-20T01:49:30.075Z,68.40
2018-02-20T01:51:57.542Z,65.60
2018-02-20T01:54:25.009Z,54.87
2018-02-20T01:56:53.278Z,60.67
2018-02-20T01:59:20.751Z,64.90
2018-02-20T02:01:49.009Z,64.20
2018-02-20T02:04:16.496Z,73.40
2018-02-20T02:06:43.962Z,66.00
2018-02-20T02:09:11.429Z,70.90
2018-02-20T02:11:38.915Z,86.73
2018-02-20T02:14:06.378Z,61.83
2018-02-20T02:16:33.848Z,55.50
2018-02-20T02:19:01.326Z,56.40
2018-02-20T02:21:29.554Z,55.00
2018-02-20T02:23:57.060Z,59.43
2018-02-20T02:26:25.308Z,61.03
2018-02-20T02:28:53.689Z,60.40
2018-02-20T02:31:21.223Z,73.17
2018-02-20T02:33:48.718Z,64.97
2018-02-20T02:36:16.951Z,63.97
2018-02-20T02:38:44.424Z,66.17
2018-02-20T02:41:11.899Z,61.30
2018-02-20T02:43:39.366Z,74.80
2018-02-20T02:46:07.623Z,80.10
2018-02-20T02:48:35.104Z,66.93
2018-02-20T02:51:03.370Z,72.43
2018-02-20T02:53:31.621Z,75.67
2018-02-20T02:55:59.091Z,66.87
2018-02-20T02:58:26.584Z,70.27
2018-02-20T03:00:54.738Z,70.60
2018-02-20T03:03:22.198Z,69.80
2018-02-20T03:05:50.442Z,69.53
2018-02-20T03:08:17.925Z,69.67
2018-02-20T03:10:46.174Z,73.50
2018-02-20T03:13:13.637Z,67.80
2018-02-20T03:15:41.102Z,64.30
2018-02-20T03:18:08.581Z,63.50
2018-02-20T03:20:36.871Z,75.17
2018-02-20T03:23:04.331Z,87.30
2018-02-20T03:25:31.823Z,68.87
2018-02-20T03:27:59.299Z,68.83
2018-02-20T03:30:26.768Z,92.77
2018-02-20T03:32:54.243Z,77.13
2018-02-20T03:35:22.474Z,74.37
2018-02-20T03:37:49.966Z,68.80
2018-02-20T03:40:18.211Z,74.20
2018-02-20T03:42:45.737Z,84.67
2018-02-20T03:45:13.931Z,79.77
2018-02-20T03:47:41.403Z,78.83
2018-02-20T03:50:08.876Z,76.00
2018-02-20T03:52:37.126Z,75.47
2018-02-20T03:55:04.617Z,81.83
2018-02-20T03:57:32.073Z,75.53
2018-02-20T03:59:59.625Z,73.50
2018-02-20T04:02:27.110Z,81.73
2018-02-20T04:04:54.590Z,90.00
2018-02-20T04:07:22.050Z,83.57
2018-02-20T04:09:49.535Z,79.67
2018-02-20T04:12:17.007Z,76.27
2018-02-20T04:14:44.478Z,73.90
2018-02-20T04:17:12.735Z,72.77
2018-02-20T04:19:40.199Z,82.90
2018-02-20T04:22:07.681Z,86.83
2018-02-20T04:24:35.174Z,70.10
2018-02-20T04:27:02.651Z,67.87
2018-02-20T04:29:30.135Z,80.87
2018-02-20T04:31:58.389Z,70.23
2018-02-20T04:34:25.847Z,84.07
2018-02-20T04:36:53.309Z,81.00
2018-02-20T04:39:20.787Z,79.33
2018-02-20T04:41:49.099Z,66.10
2018-02-20T04:44:16.591Z,88.97
2018-02-20T04:46:44.076Z,75.63
2018-02-20T04:49:12.315Z,71.87
2018-02-20T04:51:39.795Z,82.53
2018-02-20T04:54:07.279Z,70.67
2018-02-20T04:56:34.746Z,69.63
2018-02-20T04:59:02.223Z,81.63
2018-02-20T05:01:29.699Z,79.37
2018-02-20T05:03:57.161Z,78.10
2018-02-20T05:06:24.651Z,81.67
2018-02-20T05:08:52.931Z,71.63
2018-02-20T05:11:21.163Z,88.30
2018-02-20T05:13:48.631Z,69.73
2018-02-20T05:16:16.122Z,70.93
2018-02-20T05:18:44.359Z,77.10
2018-02-20T05:21:11.840Z,82.90
2018-02-20T05:23:39.374Z,73.80
2018-02-20T05:26:07.651Z,72.60
2018-02-20T05:28:35.127Z,77.70
2018-02-20T05:31:02.630Z,65.73
2018-02-20T05:33:30.907Z,82.73
2018-02-20T05:35:58.400Z,74.60
2018-02-20T05:38:25.883Z,70.03
2018-02-20T05:40:54.135Z,81.33
2018-02-20T05:43:22.406Z,82.93
2018-02-20T05:45:49.873Z,78.77
2018-02-20T05:48:17.349Z,76.10
2018-02-20T05:50:45.578Z,79.23
2018-02-20T05:53:13.815Z,82.83
2018-02-20T05:55:42.055Z,81.83
2018-02-20T05:58:09.527Z,72.00
2018-02-20T06:00:36.986Z,65.87
2018-02-20T06:03:05.230Z,86.50
2018-02-20T06:05:32.699Z,70.23
2018-02-20T06:08:00.163Z,68.70
2018-02-20T06:10:27.670Z,62.93
2018-02-20T06:12:55.158Z,65.30
2018-02-20T06:15:23.410Z,74.50
2018-02-20T06:17:50.913Z,63.37
2018-02-20T06:20:19.208Z,63.50
2018-02-20T06:22:47.451Z,73.30
2018-02-20T06:25:14.924Z,65.13
2018-02-20T06:27:43.159Z,77.47
2018-02-20T06:30:10.625Z,71.23
2018-02-20T06:32:38.123Z,67.47
2018-02-20T06:35:06.365Z,73.33
2018-02-20T06:37:33.891Z,81.07
2018-02-20T06:40:01.377Z,75.00
2018-02-20T06:42:28.909Z,68.50
2018-02-20T06:44:56.368Z,64.57
2018-02-20T06:47:23.846Z,71.27
2018-02-20T06:49:51.320Z,78.90
2018-02-20T06:52:18.781Z,65.67
2018-02-20T06:54:46.270Z,70.93
2018-02-20T06:57:13.751Z,64.50
2018-02-20T06:59:41.272Z,64.77
2018-02-20T07:02:09.534Z,75.33
2018-02-20T07:04:37.038Z,65.03
2018-02-20T07:07:04.514Z,70.43
2018-02-20T07:09:32.005Z,74.57
2018-02-20T07:12:00.316Z,67.13
2018-02-20T07:14:27.792Z,70.00
2018-02-20T07:16:55.277Z,73.17
2018-02-20T07:19:22.760Z,62.97
2018-02-20T07:21:50.283Z,73.23
2018-02-20T07:24:18.517Z,66.83
2018-02-20T07:26:46.012Z,75.57
2018-02-20T07:29:14.271Z,76.20
2018-02-20T07:31:41.758Z,86.10
2018-02-20T07:34:09.223Z,65.17
2018-02-20T07:36:36.677Z,69.87
2018-02-20T07:39:04.184Z,63.47
2018-02-20T07:41:31.667Z,63.27
2018-02-20T07:43:59.141Z,66.13
2018-02-20T07:46:26.610Z,68.77
2018-02-20T07:48:54.972Z,62.90
2018-02-20T07:51:22.429Z,72.23
2018-02-20T07:53:49.913Z,78.83
2018-02-20T07:56:17.370Z,66.60
2018-02-20T07:58:45.607Z,66.73
2018-02-20T08:01:13.075Z,77.00
2018-02-20T08:03:40.546Z,69.13
2018-02-20T08:06:08.036Z,71.30
2018-02-20T08:08:35.519Z,73.30
2018-02-20T08:11:02.986Z,82.47
2018-02-20T08:13:30.474Z,70.23
2018-02-20T08:15:57.954Z,73.10
2018-02-20T08:18:26.213Z,80.70
2018-02-20T08:20:53.674Z,77.13
2018-02-20T08:23:21.922Z,68.30
2018-02-20T08:25:49.374Z,68.70
2018-02-20T08:28:16.841Z,70.60
2018-02-20T08:30:44.314Z,68.33
2018-02-20T08:33:11.770Z,69.73
2018-02-20T08:35:39.234Z,81.53
2018-02-20T08:38:06.699Z,68.33
2018-02-20T08:40:34.938Z,74.57
2018-02-20T08:43:02.415Z,66.40
2018-02-20T08:45:29.888Z,69.33
2018-02-20T08:47:58.124Z,69.67
2018-02-20T08:50:25.592Z,69.23
2018-02-20T08:52:53.075Z,79.73
2018-02-20T08:55:21.303Z,77.73
2018-02-20T08:57:48.770Z,69.30
2018-02-20T09:00:16.253Z,73.93
2018-02-20T09:02:43.722Z,75.37
2018-02-20T09:05:11.954Z,69.73
2018-02-20T09:07:39.450Z,74.70
2018-02-20T09:10:07.682Z,77.53
2018-02-20T09:12:35.195Z,72.77
2018-02-20T09:15:03.452Z,73.90
2018-02-20T09:17:31.732Z,71.90
2018-02-20T09:19:59.950Z,84.97
2018-02-20T09:22:27.424Z,74.53
2018-02-20T09:24:54.894Z,73.20
2018-02-20T09:27:22.352Z,77.83
2018-02-20T09:29:51.374Z,74.87
2018-02-20T09:32:19.602Z,81.97
2018-02-20T09:34:47.058Z,75.50
2018-02-20T09:37:14.530Z,75.60
2018-02-20T09:39:41.992Z,74.67
2018-02-20T09:42:09.450Z,82.67
2018-02-20T09:44:36.935Z,75.27
2018-02-20T09:47:04.438Z,75.90
2018-02-20T09:49:31.892Z,73.70
2018-02-20T09:51:59.358Z,68.50
2018-02-20T09:54:26.824Z,74.50
2018-02-20T09:56:55.048Z,76.50
2018-02-20T09:59:23.291Z,77.23
2018-02-20T10:01:50.774Z,86.13
2018-02-20T10:04:18.994Z,72.97
2018-02-20T10:06:46.468Z,72.77
2018-02-20T10:09:13.927Z,69.53
2018-02-20T10:11:41.386Z,79.23
2018-02-20T10:14:08.876Z,75.40
2018-02-20T10:16:37.107Z,74.30
2018-02-20T10:19:04.558Z,72.87
2018-02-20T10:21:32.051Z,70.83
2018-02-20T10:23:59.508Z,79.07
2018-02-20T10:26:26.972Z,82.63
2018-02-20T10:28:55.212Z,74.03
2018-02-20T10:31:22.667Z,78.70
2018-02-20T10:33:50.131Z,71.60
2018-02-20T10:36:17.594Z,76.87
2018-02-20T10:38:45.051Z,71.23
2018-02-20T10:41:12.520Z,79.10
2018-02-20T10:43:40.018Z,70.03
2018-02-20T10:46:07.466Z,69.63
2018-02-20T10:48:34.923Z,74.97
2018-02-20T10:51:02.406Z,72.43
2018-02-20T10:53:29.855Z,78.33
2018-02-20T10:55:57.316Z,69.20
2018-02-20T10:58:24.790Z,80.13
2018-02-20T11:00:52.256Z,65.13
2018-02-20T11:03:19.714Z,73.20
2018-02-20T11:05:47.186Z,66.87
2018-02-20T11:08:14.657Z,71.07
2018-02-20T11:10:42.873Z,72.97
2018-02-20T11:13:11.195Z,73.07
2018-02-20T11:15:38.664Z,74.30
2018-02-20T11:18:06.892Z,76.70
2018-02-20T11:20:34.363Z,68.70
2018-02-20T11:23:01.823Z,64.93
2018-02-20T11:25:29.286Z,68.47
2018-02-20T11:27:56.762Z,68.13
2018-02-20T11:30:24.987Z,64.03
2018-02-20T11:32:52.443Z,70.30
2018-02-20T11:35:19.918Z,66.07
2018-02-20T11:37:47.374Z,66.90
2018-02-20T11:40:14.846Z,70.60
2018-02-20T11:42:42.319Z,66.90
2018-02-20T11:45:09.771Z,66.27
2018-02-20T11:47:37.288Z,69.60
2018-02-20T11:50:04.758Z,63.33
2018-02-20T11:52:32.226Z,70.33
2018-02-20T11:54:59.675Z,64.77
2018-02-20T11:57:27.146Z,64.40
2018-02-20T11:59:54.659Z,59.80
2018-02-20T12:02:22.122Z,57.30
2018-02-20T12:04:49.602Z,51.93
2018-02-20T12:07:17.064Z,51.57
2018-02-20T12:09:44.514Z,60.07
2018-02-20T12:12:12.774Z,52.00
2018-02-20T12:14:40.230Z,52.73
2018-02-20T12:17:07.691Z,58.43
2018-02-20T12:19:35.163Z,47.93
2018-02-20T12:22:02.623Z,54.67
2018-02-20T12:24:30.089Z,50.70
2018-02-20T12:26:57.558Z,48.13
2018-02-20T12:29:25.016Z,50.10
2018-02-20T12:31:53.115Z,52.90
2018-02-20T12:34:20.593Z,46.90
2018-02-20T12:36:48.095Z,50.30
2018-02-20T12:39:15.654Z,49.30
2018-02-20T12:41:43.118Z,48.93
2018-02-20T12:44:11.347Z,46.03
2018-02-20T12:46:38.810Z,49.47
2018-02-20T12:49:06.287Z,49.83
2018-02-20T12:51:33.855Z,54.17
2018-02-20T12:54:01.315Z,46.73
2018-02-20T12:56:28.791Z,48.73
2018-02-20T12:58:57.471Z,56.07
2018-02-20T13:01:25.699Z,56.60
2018-02-20T13:03:53.167Z,55.80
2018-02-20T13:06:20.623Z,49.60
2018-02-20T13:08:48.091Z,53.77
2018-02-20T13:11:15.660Z,54.77
2018-02-20T13:13:43.122Z,54.23
2018-02-20T13:16:11.358Z,53.67
2018-02-20T13:18:38.835Z,57.30
2018-02-20T13:21:06.314Z,53.53
2018-02-20T13:23:33.766Z,61.77
2018-02-20T13:26:01.233Z,63.23
2018-02-20T13:28:29.455Z,52.30
2018-02-20T13:30:56.923Z,56.97
2018-02-20T13:33:24.406Z,54.43
2018-02-20T13:35:52.643Z,59.43
2018-02-20T13:38:20.105Z,58.87
2018-02-20T13:40:47.578Z,56.37
2018-02-20T13:43:15.057Z,56.10
2018-02-20T13:45:42.515Z,58.10
2018-02-20T13:48:09.974Z,58.77
2018-02-20T13:50:38.212Z,52.23
2018-02-20T13:53:05.668Z,58.90
2018-02-20T13:55:33.130Z,59.00
2018-02-20T13:58:00.631Z,55.53
2018-02-20T14:00:28.063Z,54.73
2018-02-20T14:02:55.562Z,59.23
2018-02-20T14:05:23.022Z,59.00
2018-02-20T14:07:50.487Z,66.63
2018-02-20T14:10:17.948Z,69.03
2018-02-20T14:12:45.446Z,60.33
2018-02-20T14:15:12.927Z,63.63
2018-02-20T14:17:41.150Z,55.57
2018-02-20T14:20:08.639Z,64.30
2018-02-20T14:22:36.110Z,57.60
2018-02-20T14:25:03.567Z,59.53
2018-02-20T14:27:31.822Z,64.33
2018-02-20T14:29:59.286Z,59.00
2018-02-20T14:32:26.750Z,60.27
2018-02-20T14:34:54.231Z,63.07
2018-02-20T14:37:22.422Z,60.47
2018-02-20T14:39:49.879Z,57.20
2018-02-20T14:42:17.356Z,59.77
2018-02-20T14:44:44.831Z,57.93
2018-02-20T14:47:12.295Z,55.40
2018-02-20T14:49:39.781Z,55.13
2018-02-20T14:52:08.056Z,59.40
2018-02-20T14:54:36.288Z,61.90
2018-02-20T14:57:04.529Z,68.83
2018-02-20T14:59:32.056Z,70.40
2018-02-20T15:02:00.299Z,76.60
2018-02-20T15:04:27.780Z,75.77
2018-02-20T15:06:55.248Z,69.93
2018-02-20T15:09:23.491Z,68.37
2018-02-20T15:11:50.947Z,70.90
2018-02-20T15:14:18.409Z,74.40
2018-02-20T15:16:45.947Z,69.30
2018-02-20T15:19:13.421Z,78.23
2018-02-20T15:21:40.880Z,78.43
2018-02-20T15:24:08.358Z,81.90
2018-02-20T15:26:36.596Z,81.83
2018-02-20T15:29:04.057Z,79.87
2018-02-20T15:31:31.535Z,79.27
2018-02-20T15:33:59.008Z,78.50
2018-02-20T15:36:27.246Z,81.00
2018-02-20T15:38:54.731Z,83.63
2018-02-20T15:41:22.987Z,76.20
2018-02-20T15:43:50.443Z,84.77
2018-02-20T15:46:17.931Z,80.93
2018-02-20T15:48:46.155Z,89.43
2018-02-20T15:51:13.635Z,91.83
2018-02-20T15:53:41.129Z,85.10
2018-02-20T15:56:09.359Z,83.70
2018-02-20T15:58:36.818Z,88.33
2018-02-20T16:01:04.440Z,83.13
2018-02-20T16:03:31.910Z,86.23
2018-02-20T16:05:59.372Z,87.87
2018-02-20T16:08:26.935Z,89.93
2018-02-20T16:10:54.414Z,88.20
2018-02-20T16:13:21.883Z,80.77
2018-02-20T16:15:50.191Z,87.67
2018-02-20T16:18:18.398Z,84.70
2018-02-20T16:20:45.896Z,91.93
2018-02-20T16:23:13.383Z,90.90
2018-02-20T16:25:40.860Z,89.33
2018-02-20T16:28:08.324Z,96.37
2018-02-20T16:30:35.828Z,93.27
2018-02-20T16:33:03.291Z,99.97
2018-02-20T16:35:31.509Z,111.77
2018-02-20T16:37:59.002Z,104.30
2018-02-20T16:40:26.493Z,110.73
2018-02-20T16:42:54.756Z,103.00
2018-02-20T16:45:23.006Z,103.00
2018-02-20T16:47:50.490Z,96.00
2018-02-20T16:50:18.802Z,98.87
2018-02-20T16:52:46.285Z,97.20
2018-02-20T16:55:13.763Z,106.40
2018-02-20T16:57:41.240Z,99.53
2018-02-20T17:00:09.465Z,107.50
2018-02-20T17:02:37.484Z,100.43
2018-02-20T17:05:05.769Z,99.40
2018-02-20T17:07:33.246Z,104.93
2018-02-20T17:10:00.758Z,104.03
2018-02-20T17:12:28.216Z,108.40
2018-02-20T17:14:55.726Z,108.67
2018-02-20T17:17:23.214Z,108.13
2018-02-20T17:19:50.707Z,114.97
2018-02-20T17:22:18.958Z,103.83
2018-02-20T17:24:46.421Z,103.40
2018-02-20T17:27:13.902Z,108.97
2018-02-20T17:29:41.387Z,100.33
2018-02-20T17:32:08.891Z,105.43
2018-02-20T17:34:36.418Z,104.70
2018-02-20T17:37:04.655Z,110.80
2018-02-20T17:39:32.138Z,105.67
2018-02-20T17:41:59.623Z,100.03
2018-02-20T17:44:27.090Z,104.33
2018-02-20T17:46:55.363Z,108.27
2018-02-20T17:49:22.873Z,101.30
2018-02-20T17:51:50.335Z,109.23
2018-02-20T17:54:18.564Z,94.43
2018-02-20T17:56:46.816Z,107.50
2018-02-20T17:59:14.299Z,97.13
2018-02-20T18:01:42.535Z,103.90
2018-02-20T18:04:10.069Z,95.63
2018-02-20T18:06:37.562Z,90.23
2018-02-20T18:09:05.830Z,100.77
2018-02-20T18:11:33.356Z,86.60
2018-02-20T18:14:00.877Z,109.23
2018-02-20T18:16:28.295Z,105.40
2018-02-20T18:18:55.810Z,98.03
2018-02-20T18:21:23.274Z,88.43
2018-02-20T18:23:50.774Z,88.93
2018-02-20T18:26:18.267Z,86.80
2018-02-20T18:28:46.526Z,93.80
2018-02-20T18:31:13.989Z,93.87
2018-02-20T18:33:41.474Z,97.97
2018-02-20T18:36:08.945Z,85.80
2018-02-20T18:38:36.418Z,91.27
2018-02-20T18:41:03.927Z,78.10
2018-02-20T18:43:32.705Z,85.30
2018-02-20T18:46:00.171Z,86.63
2018-02-20T18:48:28.434Z,85.13
2018-02-20T18:50:56.432Z,94.00
2018-02-20T18:53:24.661Z,89.47
2018-02-20T18:55:52.513Z,92.07
2018-02-20T18:58:19.993Z,84.87
2018-02-20T19:00:47.463Z,90.20
2018-02-20T19:03:14.943Z,85.40
2018-02-20T19:05:43.176Z,95.90
2018-02-20T19:08:10.661Z,97.67
2018-02-20T19:10:38.192Z,92.57
2018-02-20T19:13:05.688Z,87.40
2018-02-20T19:15:33.184Z,88.10
2018-02-20T19:18:00.661Z,102.83
2018-02-20T19:20:28.153Z,91.63
2018-02-20T19:22:56.387Z,92.57
2018-02-20T19:25:23.882Z,86.20
2018-02-20T19:27:52.144Z,95.43
2018-02-20T19:30:19.615Z,85.50
2018-02-20T19:32:47.855Z,89.33
2018-02-20T19:35:15.347Z,92.10
2018-02-20T19:37:44.378Z,93.10
2018-02-20T19:40:11.852Z,96.23
2018-02-20T19:42:39.351Z,87.33
2018-02-20T19:45:07.586Z,90.20
2018-02-20T19:47:35.056Z,108.17
2018-02-20T19:50:02.560Z,94.03
2018-02-20T19:52:30.878Z,89.10
2018-02-20T19:54:58.344Z,100.17
2018-02-20T19:57:25.850Z,94.30
2018-02-20T19:59:53.329Z,93.97
2018-02-20T20:02:20.793Z,91.23
2018-02-20T20:04:48.322Z,95.77
2018-02-20T20:07:16.562Z,94.30
2018-02-20T20:09:44.040Z,100.17
2018-02-20T20:12:12.301Z,99.00
2018-02-20T20:14:39.767Z,98.17
2018-02-20T20:17:08.002Z,112.90
2018-02-20T20:19:35.504Z,97.47
2018-02-20T20:22:03.731Z,94.87
2018-02-20T20:24:31.195Z,92.33
2018-02-20T20:26:58.721Z,90.10
2018-02-20T20:29:26.179Z,90.73
2018-02-20T20:31:53.669Z,108.10
2018-02-20T20:34:21.167Z,89.97
2018-02-20T20:36:49.397Z,99.50
2018-02-20T20:39:16.903Z,86.70
2018-02-20T20:41:45.375Z,86.00
2018-02-20T20:44:14.441Z,80.90
2018-02-20T20:46:42.062Z,96.93
2018-02-20T20:49:09.552Z,86.63
2018-02-20T20:51:37.739Z,90.77
2018-02-20T20:54:05.223Z,86.93
2018-02-20T20:56:33.480Z,92.80
2018-02-20T20:59:00.981Z,89.93
2018-02-20T21:01:28.463Z,95.47
2018-02-20T21:03:56.082Z,93.53
2018-02-20T21:06:23.581Z,91.53
2018-02-20T21:08:51.039Z,83.60
2018-02-20T21:11:18.519Z,93.87
2018-02-20T21:13:46.126Z,94.33
2018-02-20T21:16:13.594Z,91.60
2018-02-20T21:18:41.076Z,85.60
2018-02-20T21:21:08.544Z,96.20
2018-02-20T21:23:36.023Z,102.27
2018-02-20T21:26:04.271Z,96.03
2018-02-20T21:28:31.767Z,100.97
2018-02-20T21:31:00.004Z,99.93
2018-02-20T21:33:27.486Z,92.37
2018-02-20T21:35:54.946Z,98.67
2018-02-20T21:38:23.206Z,95.13
2018-02-20T21:40:50.708Z,88.97
2018-02-20T21:43:18.176Z,99.27
2018-02-20T21:45:45.638Z,94.00
2018-02-20T21:48:13.107Z,98.03
2018-02-20T21:50:40.579Z,95.07
2018-02-20T21:53:08.055Z,88.83
2018-02-20T21:55:35.547Z,94.83
2018-02-20T21:58:03.019Z,106.67
2018-02-20T22:00:30.495Z,81.00
2018-02-20T22:02:57.970Z,105.47
2018-02-20T22:05:25.434Z,101.73
2018-02-20T22:07:53.481Z,104.57
2018-02-20T22:10:20.959Z,95.93
2018-02-20T22:12:48.423Z,97.00
2018-02-20T22:15:15.891Z,101.90
2018-02-20T22:17:44.139Z,96.80
2018-02-20T22:20:11.598Z,103.27
2018-02-20T22:22:39.080Z,107.90
2018-02-20T22:25:07.332Z,112.40
2018-02-20T22:27:34.799Z,105.00
2018-02-20T22:30:02.295Z,100.27
2018-02-20T22:32:30.531Z,113.67
2018-02-20T22:34:58.006Z,100.10
2018-02-20T22:37:26.243Z,105.00
2018-02-20T22:39:53.726Z,113.73
2018-02-20T22:42:21.979Z,113.57
2018-02-20T22:44:49.439Z,107.37
2018-02-20T22:47:16.913Z,96.93
2018-02-20T22:49:44.379Z,112.10
2018-02-20T22:52:12.627Z,123.50
2018-02-20T22:54:40.107Z,116.57
2018-02-20T22:57:08.380Z,118.50
2018-02-20T22:59:35.827Z,119.63
2018-02-20T23:02:04.068Z,125.77
2018-02-20T23:04:31.530Z,106.63
2018-02-20T23:06:59.012Z,127.00
2018-02-20T23:09:26.505Z,116.47
2018-02-20T23:11:54.741Z,117.83
2018-02-20T23:14:22.211Z,94.70
2018-02-20T23:16:49.796Z,121.93
2018-02-20T23:19:18.035Z,132.20
2018-02-20T23:21:45.512Z,118.57
2018-02-20T23:24:14.332Z,110.73
2018-02-20T23:26:42.328Z,125.67
2018-02-20T23:29:09.794Z,135.80
2018-02-20T23:31:37.276Z,137.30
2018-02-20T23:34:05.514Z,129.30
2018-02-20T23:36:32.982Z,119.27
2018-02-20T23:39:00.467Z,144.20
2018-02-20T23:41:27.922Z,140.30
2018-02-20T23:43:56.171Z,153.27
2018-02-20T23:46:23.642Z,129.47
2018-02-20T23:48:51.110Z,128.50
2018-02-20T23:51:25.050Z,131.83
2018-02-20T23:53:52.512Z,131.97
2018-02-20T23:56:19.978Z,133.03
2018-02-20T23:58:47.476Z,132.90
